sensor_id;sensor_type;location;lat;lon;timestamp;P1;durP1;ratioP1;P2;durP2;ratioP2
25758;SDS011;13604;52.496;13.456;2024-01-06T00:00:49;97.38;;;43.13;;
25758;SDS011;13604;52.496;13.456;2024-01-06T00:03:14;100.10;;;41.95;;
25758;SDS011;13604;52.496;13.456;2024-01-06T00:05:39;91.65;;;39.78;;
25758;SDS011;13604;52.496;13.456;2024-01-06T00:08:05;99.03;;;40.42;;
25758;SDS011;13604;52.496;13.456;2024-01-06T00:10:31;92.80;;;40.40;;
25758;SDS011;13604;52.496;13.456;2024-01-06T00:12:56;98.60;;;41.83;;
25758;SDS011;13604;52.496;13.456;2024-01-06T00:15:22;98.80;;;41.28;;
25758;SDS011;13604;52.496;13.456;2024-01-06T00:17:47;99.13;;;40.17;;
25758;SDS011;13604;52.496;13.456;2024-01-06T00:20:13;92.72;;;39.08;;
25758;SDS011;13604;52.496;13.456;2024-01-06T00:22:38;87.10;;;38.92;;
25758;SDS011;13604;52.496;13.456;2024-01-06T00:25:04;93.60;;;37.88;;
25758;SDS011;13604;52.496;13.456;2024-01-06T00:27:29;87.63;;;39.42;;
25758;SDS011;13604;52.496;13.456;2024-01-06T00:29:54;89.32;;;38.45;;
25758;SDS011;13604;52.496;13.456;2024-01-06T00:32:20;90.00;;;38.72;;
25758;SDS011;13604;52.496;13.456;2024-01-06T00:34:45;91.40;;;39.35;;
25758;SDS011;13604;52.496;13.456;2024-01-06T00:37:11;88.85;;;37.42;;
25758;SDS011;13604;52.496;13.456;2024-01-06T00:39:36;87.80;;;37.95;;
25758;SDS011;13604;52.496;13.456;2024-01-06T00:42:02;86.35;;;38.03;;
25758;SDS011;13604;52.496;13.456;2024-01-06T00:44:27;79.47;;;35.58;;
25758;SDS011;13604;52.496;13.456;2024-01-06T00:46:52;84.50;;;36.25;;
25758;SDS011;13604;52.496;13.456;2024-01-06T00:49:17;83.28;;;37.67;;
25758;SDS011;13604;52.496;13.456;2024-01-06T00:51:43;84.15;;;34.72;;
25758;SDS011;13604;52.496;13.456;2024-01-06T00:54:08;85.20;;;36.13;;
25758;SDS011;13604;52.496;13.456;2024-01-06T00:56:33;82.35;;;34.15;;
25758;SDS011;13604;52.496;13.456;2024-01-06T00:58:59;75.88;;;34.25;;
25758;SDS011;13604;52.496;13.456;2024-01-06T01:01:24;83.50;;;34.78;;
25758;SDS011;13604;52.496;13.456;2024-01-06T01:03:49;81.95;;;36.33;;
25758;SDS011;13604;52.496;13.456;2024-01-06T01:06:15;85.05;;;35.33;;
25758;SDS011;13604;52.496;13.456;2024-01-06T01:08:40;81.57;;;35.95;;
25758;SDS011;13604;52.496;13.456;2024-01-06T01:11:05;84.53;;;35.25;;
25758;SDS011;13604;52.496;13.456;2024-01-06T01:13:32;78.00;;;35.38;;
25758;SDS011;13604;52.496;13.456;2024-01-06T01:15:57;85.15;;;35.90;;
25758;SDS011;13604;52.496;13.456;2024-01-06T01:18:22;83.85;;;35.88;;
25758;SDS011;13604;52.496;13.456;2024-01-06T01:20:48;81.75;;;35.53;;
25758;SDS011;13604;52.496;13.456;2024-01-06T01:23:13;76.47;;;35.05;;
25758;SDS011;13604;52.496;13.456;2024-01-06T01:25:38;81.20;;;34.95;;
25758;SDS011;13604;52.496;13.456;2024-01-06T01:28:04;83.60;;;35.42;;
25758;SDS011;13604;52.496;13.456;2024-01-06T01:30:29;77.90;;;34.45;;
25758;SDS011;13604;52.496;13.456;2024-01-06T01:32:54;73.20;;;34.88;;
25758;SDS011;13604;52.496;13.456;2024-01-06T01:35:19;76.47;;;33.45;;
25758;SDS011;13604;52.496;13.456;2024-01-06T01:37:45;84.45;;;36.20;;
25758;SDS011;13604;52.496;13.456;2024-01-06T01:40:10;89.25;;;36.65;;
25758;SDS011;13604;52.496;13.456;2024-01-06T01:42:36;82.13;;;33.50;;
25758;SDS011;13604;52.496;13.456;2024-01-06T01:45:02;74.85;;;33.53;;
25758;SDS011;13604;52.496;13.456;2024-01-06T01:47:28;77.07;;;32.55;;
25758;SDS011;13604;52.496;13.456;2024-01-06T01:49:54;75.80;;;34.10;;
25758;SDS011;13604;52.496;13.456;2024-01-06T01:52:20;80.75;;;33.15;;
25758;SDS011;13604;52.496;13.456;2024-01-06T01:54:45;78.30;;;35.17;;
25758;SDS011;13604;52.496;13.456;2024-01-06T01:57:11;73.63;;;32.58;;
25758;SDS011;13604;52.496;13.456;2024-01-06T01:59:38;71.32;;;33.00;;
25758;SDS011;13604;52.496;13.456;2024-01-06T02:02:04;78.07;;;32.08;;
25758;SDS011;13604;52.496;13.456;2024-01-06T02:04:30;75.07;;;34.05;;
25758;SDS011;13604;52.496;13.456;2024-01-06T02:06:55;74.93;;;33.10;;
25758;SDS011;13604;52.496;13.456;2024-01-06T02:09:20;74.72;;;32.28;;
25758;SDS011;13604;52.496;13.456;2024-01-06T02:11:48;82.40;;;35.42;;
25758;SDS011;13604;52.496;13.456;2024-01-06T02:14:13;78.07;;;32.95;;
25758;SDS011;13604;52.496;13.456;2024-01-06T02:16:38;75.68;;;33.60;;
25758;SDS011;13604;52.496;13.456;2024-01-06T02:19:03;76.53;;;34.15;;
25758;SDS011;13604;52.496;13.456;2024-01-06T02:21:30;79.85;;;33.95;;
25758;SDS011;13604;52.496;13.456;2024-01-06T02:23:56;77.25;;;33.15;;
25758;SDS011;13604;52.496;13.456;2024-01-06T02:26:21;78.53;;;32.75;;
25758;SDS011;13604;52.496;13.456;2024-01-06T02:28:47;76.90;;;33.47;;
25758;SDS011;13604;52.496;13.456;2024-01-06T02:31:14;80.10;;;33.40;;
25758;SDS011;13604;52.496;13.456;2024-01-06T02:33:39;74.60;;;33.67;;
25758;SDS011;13604;52.496;13.456;2024-01-06T02:36:04;76.53;;;33.42;;
25758;SDS011;13604;52.496;13.456;2024-01-06T02:38:30;75.63;;;32.88;;
25758;SDS011;13604;52.496;13.456;2024-01-06T02:40:55;73.85;;;32.22;;
25758;SDS011;13604;52.496;13.456;2024-01-06T02:43:20;84.00;;;32.97;;
25758;SDS011;13604;52.496;13.456;2024-01-06T02:45:48;73.95;;;32.42;;
25758;SDS011;13604;52.496;13.456;2024-01-06T02:48:13;71.75;;;29.98;;
25758;SDS011;13604;52.496;13.456;2024-01-06T02:50:38;72.78;;;32.05;;
25758;SDS011;13604;52.496;13.456;2024-01-06T02:53:04;80.13;;;32.70;;
25758;SDS011;13604;52.496;13.456;2024-01-06T02:55:29;71.90;;;31.30;;
25758;SDS011;13604;52.496;13.456;2024-01-06T02:57:54;73.82;;;30.35;;
25758;SDS011;13604;52.496;13.456;2024-01-06T03:00:20;71.30;;;31.10;;
25758;SDS011;13604;52.496;13.456;2024-01-06T03:02:45;70.13;;;31.75;;
25758;SDS011;13604;52.496;13.456;2024-01-06T03:05:10;73.78;;;32.42;;
25758;SDS011;13604;52.496;13.456;2024-01-06T03:07:36;73.10;;;30.13;;
25758;SDS011;13604;52.496;13.456;2024-01-06T03:10:01;67.00;;;28.50;;
25758;SDS011;13604;52.496;13.456;2024-01-06T03:12:27;76.10;;;31.92;;
25758;SDS011;13604;52.496;13.456;2024-01-06T03:14:53;77.32;;;34.38;;
25758;SDS011;13604;52.496;13.456;2024-01-06T03:17:18;73.60;;;31.70;;
25758;SDS011;13604;52.496;13.456;2024-01-06T03:19:43;75.50;;;30.92;;
25758;SDS011;13604;52.496;13.456;2024-01-06T03:22:09;73.88;;;32.83;;
25758;SDS011;13604;52.496;13.456;2024-01-06T03:24:34;76.70;;;30.45;;
25758;SDS011;13604;52.496;13.456;2024-01-06T03:26:59;74.97;;;30.73;;
25758;SDS011;13604;52.496;13.456;2024-01-06T03:29:25;73.45;;;30.75;;
25758;SDS011;13604;52.496;13.456;2024-01-06T03:31:50;74.95;;;30.05;;
25758;SDS011;13604;52.496;13.456;2024-01-06T03:34:15;80.53;;;32.90;;
25758;SDS011;13604;52.496;13.456;2024-01-06T03:36:41;73.72;;;31.23;;
25758;SDS011;13604;52.496;13.456;2024-01-06T03:39:07;73.25;;;30.98;;
25758;SDS011;13604;52.496;13.456;2024-01-06T03:41:32;75.28;;;31.23;;
25758;SDS011;13604;52.496;13.456;2024-01-06T03:43:58;72.43;;;30.50;;
25758;SDS011;13604;52.496;13.456;2024-01-06T03:46:23;76.18;;;32.47;;
25758;SDS011;13604;52.496;13.456;2024-01-06T03:48:49;82.47;;;32.55;;
25758;SDS011;13604;52.496;13.456;2024-01-06T03:51:14;86.00;;;32.80;;
25758;SDS011;13604;52.496;13.456;2024-01-06T03:53:39;82.03;;;33.63;;
25758;SDS011;13604;52.496;13.456;2024-01-06T03:56:07;74.72;;;32.22;;
25758;SDS011;13604;52.496;13.456;2024-01-06T03:58:33;70.70;;;31.30;;
25758;SDS011;13604;52.496;13.456;2024-01-06T04:00:58;78.10;;;32.88;;
25758;SDS011;13604;52.496;13.456;2024-01-06T04:03:25;76.05;;;33.00;;
25758;SDS011;13604;52.496;13.456;2024-01-06T04:05:50;81.00;;;35.15;;
25758;SDS011;13604;52.496;13.456;2024-01-06T04:08:15;77.25;;;31.00;;
25758;SDS011;13604;52.496;13.456;2024-01-06T04:10:41;76.60;;;33.97;;
25758;SDS011;13604;52.496;13.456;2024-01-06T04:13:07;83.07;;;33.00;;
25758;SDS011;13604;52.496;13.456;2024-01-06T04:15:32;88.75;;;33.67;;
25758;SDS011;13604;52.496;13.456;2024-01-06T04:18:01;81.63;;;32.22;;
25758;SDS011;13604;52.496;13.456;2024-01-06T04:20:27;84.85;;;34.47;;
25758;SDS011;13604;52.496;13.456;2024-01-06T04:22:52;92.07;;;36.35;;
25758;SDS011;13604;52.496;13.456;2024-01-06T04:25:18;83.00;;;34.70;;
25758;SDS011;13604;52.496;13.456;2024-01-06T04:27:43;82.85;;;33.85;;
25758;SDS011;13604;52.496;13.456;2024-01-06T04:30:10;93.85;;;35.72;;
25758;SDS011;13604;52.496;13.456;2024-01-06T04:32:35;85.50;;;33.63;;
25758;SDS011;13604;52.496;13.456;2024-01-06T04:35:01;91.60;;;34.38;;
25758;SDS011;13604;52.496;13.456;2024-01-06T04:37:26;82.75;;;33.33;;
25758;SDS011;13604;52.496;13.456;2024-01-06T04:39:51;87.65;;;34.35;;
25758;SDS011;13604;52.496;13.456;2024-01-06T04:42:17;89.60;;;36.25;;
25758;SDS011;13604;52.496;13.456;2024-01-06T04:44:42;95.43;;;35.47;;
25758;SDS011;13604;52.496;13.456;2024-01-06T04:47:07;100.57;;;35.38;;
25758;SDS011;13604;52.496;13.456;2024-01-06T04:49:32;91.03;;;35.92;;
25758;SDS011;13604;52.496;13.456;2024-01-06T04:51:58;90.80;;;36.20;;
25758;SDS011;13604;52.496;13.456;2024-01-06T04:54:23;91.95;;;36.08;;
25758;SDS011;13604;52.496;13.456;2024-01-06T04:56:48;95.32;;;36.53;;
25758;SDS011;13604;52.496;13.456;2024-01-06T04:59:14;87.43;;;35.15;;
25758;SDS011;13604;52.496;13.456;2024-01-06T05:01:39;100.70;;;36.45;;
25758;SDS011;13604;52.496;13.456;2024-01-06T05:04:04;94.65;;;36.75;;
25758;SDS011;13604;52.496;13.456;2024-01-06T05:06:30;96.00;;;36.70;;
25758;SDS011;13604;52.496;13.456;2024-01-06T05:08:55;95.25;;;35.78;;
25758;SDS011;13604;52.496;13.456;2024-01-06T05:11:20;96.05;;;37.05;;
25758;SDS011;13604;52.496;13.456;2024-01-06T05:13:46;101.63;;;36.90;;
25758;SDS011;13604;52.496;13.456;2024-01-06T05:16:11;95.03;;;37.53;;
25758;SDS011;13604;52.496;13.456;2024-01-06T05:18:36;103.10;;;40.25;;
25758;SDS011;13604;52.496;13.456;2024-01-06T05:21:02;100.85;;;38.22;;
25758;SDS011;13604;52.496;13.456;2024-01-06T05:23:28;103.57;;;37.92;;
25758;SDS011;13604;52.496;13.456;2024-01-06T05:25:54;99.90;;;35.58;;
25758;SDS011;13604;52.496;13.456;2024-01-06T05:28:19;104.18;;;36.40;;
25758;SDS011;13604;52.496;13.456;2024-01-06T05:30:45;101.78;;;39.10;;
25758;SDS011;13604;52.496;13.456;2024-01-06T05:33:11;105.90;;;40.40;;
25758;SDS011;13604;52.496;13.456;2024-01-06T05:35:38;103.82;;;38.92;;
25758;SDS011;13604;52.496;13.456;2024-01-06T05:38:03;111.72;;;39.47;;
25758;SDS011;13604;52.496;13.456;2024-01-06T05:40:29;104.50;;;39.17;;
25758;SDS011;13604;52.496;13.456;2024-01-06T05:42:54;102.88;;;40.80;;
25758;SDS011;13604;52.496;13.456;2024-01-06T05:45:20;106.80;;;39.10;;
25758;SDS011;13604;52.496;13.456;2024-01-06T05:47:46;107.50;;;39.40;;
25758;SDS011;13604;52.496;13.456;2024-01-06T05:50:11;104.63;;;39.47;;
25758;SDS011;13604;52.496;13.456;2024-01-06T05:52:40;102.35;;;37.92;;
25758;SDS011;13604;52.496;13.456;2024-01-06T05:55:06;103.75;;;41.15;;
25758;SDS011;13604;52.496;13.456;2024-01-06T05:57:31;100.88;;;38.30;;
25758;SDS011;13604;52.496;13.456;2024-01-06T05:59:57;100.32;;;38.70;;
25758;SDS011;13604;52.496;13.456;2024-01-06T06:02:22;95.40;;;37.58;;
25758;SDS011;13604;52.496;13.456;2024-01-06T06:04:47;97.30;;;37.10;;
25758;SDS011;13604;52.496;13.456;2024-01-06T06:07:12;97.10;;;37.15;;
25758;SDS011;13604;52.496;13.456;2024-01-06T06:09:38;101.78;;;38.70;;
25758;SDS011;13604;52.496;13.456;2024-01-06T06:12:04;115.00;;;40.10;;
25758;SDS011;13604;52.496;13.456;2024-01-06T06:14:30;94.70;;;36.75;;
25758;SDS011;13604;52.496;13.456;2024-01-06T06:16:55;102.45;;;38.28;;
25758;SDS011;13604;52.496;13.456;2024-01-06T06:19:21;104.15;;;37.67;;
25758;SDS011;13604;52.496;13.456;2024-01-06T06:21:46;107.10;;;38.67;;
25758;SDS011;13604;52.496;13.456;2024-01-06T06:24:12;93.63;;;36.28;;
25758;SDS011;13604;52.496;13.456;2024-01-06T06:26:37;101.50;;;37.88;;
25758;SDS011;13604;52.496;13.456;2024-01-06T06:29:02;107.25;;;39.85;;
25758;SDS011;13604;52.496;13.456;2024-01-06T06:31:28;104.95;;;37.92;;
25758;SDS011;13604;52.496;13.456;2024-01-06T06:33:53;100.40;;;34.97;;
25758;SDS011;13604;52.496;13.456;2024-01-06T06:36:18;106.15;;;37.67;;
25758;SDS011;13604;52.496;13.456;2024-01-06T06:38:44;96.32;;;37.83;;
25758;SDS011;13604;52.496;13.456;2024-01-06T06:41:09;97.97;;;36.80;;
25758;SDS011;13604;52.496;13.456;2024-01-06T06:43:34;107.35;;;38.00;;
25758;SDS011;13604;52.496;13.456;2024-01-06T06:46:00;97.63;;;37.63;;
25758;SDS011;13604;52.496;13.456;2024-01-06T06:48:25;104.65;;;38.50;;
25758;SDS011;13604;52.496;13.456;2024-01-06T06:50:50;103.70;;;38.40;;
25758;SDS011;13604;52.496;13.456;2024-01-06T06:53:15;92.38;;;36.90;;
25758;SDS011;13604;52.496;13.456;2024-01-06T06:55:41;110.63;;;38.67;;
25758;SDS011;13604;52.496;13.456;2024-01-06T06:58:06;98.25;;;36.85;;
25758;SDS011;13604;52.496;13.456;2024-01-06T07:00:31;96.97;;;37.03;;
25758;SDS011;13604;52.496;13.456;2024-01-06T07:02:57;97.43;;;35.17;;
25758;SDS011;13604;52.496;13.456;2024-01-06T07:05:23;98.47;;;35.17;;
25758;SDS011;13604;52.496;13.456;2024-01-06T07:07:48;102.32;;;36.30;;
25758;SDS011;13604;52.496;13.456;2024-01-06T07:10:14;94.07;;;35.75;;
25758;SDS011;13604;52.496;13.456;2024-01-06T07:12:39;93.05;;;35.35;;
25758;SDS011;13604;52.496;13.456;2024-01-06T07:15:04;95.72;;;35.50;;
25758;SDS011;13604;52.496;13.456;2024-01-06T07:17:30;98.57;;;35.53;;
25758;SDS011;13604;52.496;13.456;2024-01-06T07:19:55;93.95;;;35.88;;
25758;SDS011;13604;52.496;13.456;2024-01-06T07:22:20;96.60;;;34.70;;
25758;SDS011;13604;52.496;13.456;2024-01-06T07:24:46;93.57;;;33.88;;
25758;SDS011;13604;52.496;13.456;2024-01-06T07:27:11;92.82;;;35.50;;
25758;SDS011;13604;52.496;13.456;2024-01-06T07:29:36;97.50;;;35.47;;
25758;SDS011;13604;52.496;13.456;2024-01-06T07:32:02;100.80;;;36.20;;
25758;SDS011;13604;52.496;13.456;2024-01-06T07:34:28;98.22;;;35.90;;
25758;SDS011;13604;52.496;13.456;2024-01-06T07:36:53;110.75;;;38.90;;
25758;SDS011;13604;52.496;13.456;2024-01-06T07:39:19;131.32;;;40.55;;
25758;SDS011;13604;52.496;13.456;2024-01-06T07:41:44;100.80;;;37.35;;
25758;SDS011;13604;52.496;13.456;2024-01-06T07:44:11;106.80;;;36.50;;
25758;SDS011;13604;52.496;13.456;2024-01-06T07:46:37;112.85;;;38.03;;
25758;SDS011;13604;52.496;13.456;2024-01-06T07:49:02;107.30;;;35.22;;
25758;SDS011;13604;52.496;13.456;2024-01-06T07:51:27;114.00;;;38.30;;
25758;SDS011;13604;52.496;13.456;2024-01-06T07:53:53;115.95;;;37.83;;
25758;SDS011;13604;52.496;13.456;2024-01-06T07:56:18;111.25;;;37.72;;
25758;SDS011;13604;52.496;13.456;2024-01-06T07:58:43;115.25;;;38.65;;
25758;SDS011;13604;52.496;13.456;2024-01-06T08:01:09;119.75;;;39.17;;
25758;SDS011;13604;52.496;13.456;2024-01-06T08:03:34;112.95;;;37.70;;
25758;SDS011;13604;52.496;13.456;2024-01-06T08:05:59;127.25;;;39.03;;
25758;SDS011;13604;52.496;13.456;2024-01-06T08:08:25;109.13;;;37.15;;
25758;SDS011;13604;52.496;13.456;2024-01-06T08:10:51;111.60;;;38.58;;
25758;SDS011;13604;52.496;13.456;2024-01-06T08:13:16;121.75;;;39.90;;
25758;SDS011;13604;52.496;13.456;2024-01-06T08:15:41;123.65;;;38.97;;
25758;SDS011;13604;52.496;13.456;2024-01-06T08:18:07;121.43;;;39.63;;
25758;SDS011;13604;52.496;13.456;2024-01-06T08:20:32;115.78;;;39.03;;
25758;SDS011;13604;52.496;13.456;2024-01-06T08:22:57;119.90;;;39.38;;
25758;SDS011;13604;52.496;13.456;2024-01-06T08:25:23;116.40;;;39.80;;
25758;SDS011;13604;52.496;13.456;2024-01-06T08:27:48;113.45;;;38.45;;
25758;SDS011;13604;52.496;13.456;2024-01-06T08:30:13;108.00;;;38.55;;
25758;SDS011;13604;52.496;13.456;2024-01-06T08:32:39;123.20;;;40.05;;
25758;SDS011;13604;52.496;13.456;2024-01-06T08:35:04;122.13;;;40.20;;
25758;SDS011;13604;52.496;13.456;2024-01-06T08:37:30;130.60;;;40.20;;
25758;SDS011;13604;52.496;13.456;2024-01-06T08:39:55;112.55;;;39.90;;
25758;SDS011;13604;52.496;13.456;2024-01-06T08:42:20;106.43;;;38.00;;
25758;SDS011;13604;52.496;13.456;2024-01-06T08:44:46;112.35;;;37.28;;
25758;SDS011;13604;52.496;13.456;2024-01-06T08:47:12;111.68;;;36.95;;
25758;SDS011;13604;52.496;13.456;2024-01-06T08:49:37;108.63;;;38.33;;
25758;SDS011;13604;52.496;13.456;2024-01-06T08:52:02;119.15;;;40.17;;
25758;SDS011;13604;52.496;13.456;2024-01-06T08:54:28;105.55;;;37.97;;
25758;SDS011;13604;52.496;13.456;2024-01-06T08:56:54;107.18;;;36.88;;
25758;SDS011;13604;52.496;13.456;2024-01-06T08:59:20;105.15;;;38.25;;
25758;SDS011;13604;52.496;13.456;2024-01-06T09:01:45;108.78;;;38.13;;
25758;SDS011;13604;52.496;13.456;2024-01-06T09:04:10;115.38;;;37.88;;
25758;SDS011;13604;52.496;13.456;2024-01-06T09:06:37;102.22;;;37.38;;
25758;SDS011;13604;52.496;13.456;2024-01-06T09:09:03;95.30;;;35.50;;
25758;SDS011;13604;52.496;13.456;2024-01-06T09:11:28;109.50;;;38.72;;
25758;SDS011;13604;52.496;13.456;2024-01-06T09:13:53;97.82;;;36.08;;
25758;SDS011;13604;52.496;13.456;2024-01-06T09:16:19;98.03;;;35.78;;
25758;SDS011;13604;52.496;13.456;2024-01-06T09:18:44;106.90;;;37.88;;
25758;SDS011;13604;52.496;13.456;2024-01-06T09:21:10;110.35;;;38.60;;
25758;SDS011;13604;52.496;13.456;2024-01-06T09:23:35;112.47;;;38.78;;
25758;SDS011;13604;52.496;13.456;2024-01-06T09:26:00;106.47;;;37.95;;
25758;SDS011;13604;52.496;13.456;2024-01-06T09:28:26;101.93;;;37.40;;
25758;SDS011;13604;52.496;13.456;2024-01-06T09:30:51;97.35;;;36.53;;
25758;SDS011;13604;52.496;13.456;2024-01-06T09:33:17;99.22;;;35.10;;
25758;SDS011;13604;52.496;13.456;2024-01-06T09:35:42;100.18;;;35.45;;
25758;SDS011;13604;52.496;13.456;2024-01-06T09:38:09;86.40;;;33.65;;
25758;SDS011;13604;52.496;13.456;2024-01-06T09:40:35;103.22;;;35.20;;
25758;SDS011;13604;52.496;13.456;2024-01-06T09:43:08;100.95;;;37.25;;
25758;SDS011;13604;52.496;13.456;2024-01-06T09:45:34;102.68;;;38.63;;
25758;SDS011;13604;52.496;13.456;2024-01-06T09:47:59;100.97;;;38.45;;
25758;SDS011;13604;52.496;13.456;2024-01-06T09:50:33;93.85;;;36.33;;
25758;SDS011;13604;52.496;13.456;2024-01-06T09:52:59;93.63;;;37.35;;
25758;SDS011;13604;52.496;13.456;2024-01-06T09:55:30;89.93;;;35.50;;
25758;SDS011;13604;52.496;13.456;2024-01-06T09:57:56;93.43;;;36.88;;
25758;SDS011;13604;52.496;13.456;2024-01-06T10:00:21;93.07;;;37.58;;
25758;SDS011;13604;52.496;13.456;2024-01-06T10:02:47;92.15;;;36.08;;
25758;SDS011;13604;52.496;13.456;2024-01-06T10:05:14;88.03;;;35.28;;
25758;SDS011;13604;52.496;13.456;2024-01-06T10:07:44;88.15;;;35.67;;
25758;SDS011;13604;52.496;13.456;2024-01-06T10:10:10;84.55;;;32.50;;
25758;SDS011;13604;52.496;13.456;2024-01-06T10:12:38;82.78;;;34.05;;
25758;SDS011;13604;52.496;13.456;2024-01-06T10:15:05;79.18;;;34.10;;
25758;SDS011;13604;52.496;13.456;2024-01-06T10:17:31;89.55;;;35.58;;
25758;SDS011;13604;52.496;13.456;2024-01-06T10:19:57;94.38;;;35.90;;
25758;SDS011;13604;52.496;13.456;2024-01-06T10:22:22;89.72;;;37.10;;
25758;SDS011;13604;52.496;13.456;2024-01-06T10:24:48;92.72;;;36.47;;
25758;SDS011;13604;52.496;13.456;2024-01-06T10:27:13;86.80;;;35.28;;
25758;SDS011;13604;52.496;13.456;2024-01-06T10:29:38;89.75;;;37.45;;
25758;SDS011;13604;52.496;13.456;2024-01-06T10:32:04;87.32;;;34.60;;
25758;SDS011;13604;52.496;13.456;2024-01-06T10:34:29;81.10;;;33.63;;
25758;SDS011;13604;52.496;13.456;2024-01-06T10:36:57;83.68;;;35.00;;
25758;SDS011;13604;52.496;13.456;2024-01-06T10:39:22;76.30;;;34.22;;
25758;SDS011;13604;52.496;13.456;2024-01-06T10:41:48;75.55;;;33.08;;
25758;SDS011;13604;52.496;13.456;2024-01-06T10:44:14;81.88;;;33.95;;
25758;SDS011;13604;52.496;13.456;2024-01-06T10:46:40;85.03;;;33.83;;
25758;SDS011;13604;52.496;13.456;2024-01-06T10:49:06;78.10;;;32.15;;
25758;SDS011;13604;52.496;13.456;2024-01-06T10:51:36;84.78;;;32.88;;
25758;SDS011;13604;52.496;13.456;2024-01-06T10:54:02;74.38;;;33.60;;
25758;SDS011;13604;52.496;13.456;2024-01-06T10:56:28;73.00;;;32.85;;
25758;SDS011;13604;52.496;13.456;2024-01-06T10:58:54;75.57;;;31.67;;
25758;SDS011;13604;52.496;13.456;2024-01-06T11:01:22;84.90;;;32.97;;
25758;SDS011;13604;52.496;13.456;2024-01-06T11:03:49;75.55;;;32.00;;
25758;SDS011;13604;52.496;13.456;2024-01-06T11:06:14;70.82;;;30.42;;
25758;SDS011;13604;52.496;13.456;2024-01-06T11:08:51;71.25;;;30.85;;
25758;SDS011;13604;52.496;13.456;2024-01-06T11:11:35;78.88;;;31.88;;
25758;SDS011;13604;52.496;13.456;2024-01-06T11:17:02;66.35;;;31.10;;
25758;SDS011;13604;52.496;13.456;2024-01-06T11:22:18;87.38;;;32.65;;
25758;SDS011;13604;52.496;13.456;2024-01-06T11:24:57;74.25;;;31.88;;
25758;SDS011;13604;52.496;13.456;2024-01-06T11:27:29;79.00;;;32.95;;
25758;SDS011;13604;52.496;13.456;2024-01-06T11:29:56;80.68;;;34.40;;
25758;SDS011;13604;52.496;13.456;2024-01-06T11:32:27;87.63;;;35.97;;
25758;SDS011;13604;52.496;13.456;2024-01-06T11:34:54;79.50;;;36.05;;
25758;SDS011;13604;52.496;13.456;2024-01-06T11:37:27;68.55;;;32.00;;
25758;SDS011;13604;52.496;13.456;2024-01-06T11:40:07;72.45;;;32.28;;
25758;SDS011;13604;52.496;13.456;2024-01-06T11:42:45;67.63;;;31.50;;
25758;SDS011;13604;52.496;13.456;2024-01-06T11:45:12;68.53;;;30.90;;
25758;SDS011;13604;52.496;13.456;2024-01-06T11:47:38;63.42;;;29.75;;
25758;SDS011;13604;52.496;13.456;2024-01-06T11:50:04;61.83;;;29.00;;
25758;SDS011;13604;52.496;13.456;2024-01-06T11:52:33;63.40;;;28.23;;
25758;SDS011;13604;52.496;13.456;2024-01-06T11:54:59;67.85;;;29.42;;
25758;SDS011;13604;52.496;13.456;2024-01-06T11:57:25;60.38;;;30.20;;
25758;SDS011;13604;52.496;13.456;2024-01-06T11:59:51;67.88;;;31.05;;
25758;SDS011;13604;52.496;13.456;2024-01-06T12:02:17;57.60;;;27.88;;
25758;SDS011;13604;52.496;13.456;2024-01-06T12:04:47;61.47;;;29.08;;
25758;SDS011;13604;52.496;13.456;2024-01-06T12:07:16;64.03;;;29.95;;
25758;SDS011;13604;52.496;13.456;2024-01-06T12:09:42;72.53;;;30.15;;
25758;SDS011;13604;52.496;13.456;2024-01-06T12:12:07;66.53;;;30.30;;
25758;SDS011;13604;52.496;13.456;2024-01-06T12:14:34;64.70;;;30.30;;
25758;SDS011;13604;52.496;13.456;2024-01-06T12:16:59;61.80;;;28.65;;
25758;SDS011;13604;52.496;13.456;2024-01-06T12:19:33;67.60;;;31.42;;
25758;SDS011;13604;52.496;13.456;2024-01-06T12:21:59;65.30;;;29.92;;
25758;SDS011;13604;52.496;13.456;2024-01-06T12:24:26;71.72;;;31.65;;
25758;SDS011;13604;52.496;13.456;2024-01-06T12:26:53;65.45;;;29.17;;
25758;SDS011;13604;52.496;13.456;2024-01-06T12:29:21;66.70;;;30.52;;
25758;SDS011;13604;52.496;13.456;2024-01-06T12:31:47;67.53;;;29.92;;
25758;SDS011;13604;52.496;13.456;2024-01-06T12:34:12;69.20;;;30.17;;
25758;SDS011;13604;52.496;13.456;2024-01-06T12:36:38;64.38;;;28.15;;
25758;SDS011;13604;52.496;13.456;2024-01-06T12:39:04;68.28;;;29.75;;
25758;SDS011;13604;52.496;13.456;2024-01-06T12:41:29;70.68;;;30.20;;
25758;SDS011;13604;52.496;13.456;2024-01-06T12:43:55;72.38;;;31.50;;
25758;SDS011;13604;52.496;13.456;2024-01-06T12:46:20;69.43;;;30.25;;
25758;SDS011;13604;52.496;13.456;2024-01-06T12:48:46;71.20;;;30.17;;
25758;SDS011;13604;52.496;13.456;2024-01-06T12:51:11;64.93;;;30.55;;
25758;SDS011;13604;52.496;13.456;2024-01-06T12:53:36;72.93;;;30.08;;
25758;SDS011;13604;52.496;13.456;2024-01-06T12:56:02;66.80;;;30.98;;
25758;SDS011;13604;52.496;13.456;2024-01-06T12:58:27;63.03;;;29.65;;
25758;SDS011;13604;52.496;13.456;2024-01-06T13:00:52;73.70;;;30.65;;
25758;SDS011;13604;52.496;13.456;2024-01-06T13:03:17;64.05;;;27.48;;
25758;SDS011;13604;52.496;13.456;2024-01-06T13:05:43;64.50;;;28.40;;
25758;SDS011;13604;52.496;13.456;2024-01-06T13:08:12;70.05;;;28.75;;
25758;SDS011;13604;52.496;13.456;2024-01-06T13:10:37;62.03;;;27.58;;
25758;SDS011;13604;52.496;13.456;2024-01-06T13:13:02;61.30;;;27.33;;
25758;SDS011;13604;52.496;13.456;2024-01-06T13:15:28;57.95;;;26.70;;
25758;SDS011;13604;52.496;13.456;2024-01-06T13:17:53;63.45;;;27.90;;
25758;SDS011;13604;52.496;13.456;2024-01-06T13:20:18;59.67;;;26.77;;
25758;SDS011;13604;52.496;13.456;2024-01-06T13:22:44;60.08;;;25.73;;
25758;SDS011;13604;52.496;13.456;2024-01-06T13:25:09;60.92;;;25.88;;
25758;SDS011;13604;52.496;13.456;2024-01-06T13:27:34;55.50;;;24.88;;
25758;SDS011;13604;52.496;13.456;2024-01-06T13:30:00;56.42;;;25.92;;
25758;SDS011;13604;52.496;13.456;2024-01-06T13:32:25;62.47;;;27.13;;
25758;SDS011;13604;52.496;13.456;2024-01-06T13:34:52;54.80;;;26.48;;
25758;SDS011;13604;52.496;13.456;2024-01-06T13:37:19;58.58;;;25.35;;
25758;SDS011;13604;52.496;13.456;2024-01-06T13:39:47;50.22;;;23.35;;
25758;SDS011;13604;52.496;13.456;2024-01-06T13:42:12;55.03;;;23.27;;
25758;SDS011;13604;52.496;13.456;2024-01-06T13:44:37;57.15;;;25.25;;
25758;SDS011;13604;52.496;13.456;2024-01-06T13:47:03;52.83;;;24.85;;
25758;SDS011;13604;52.496;13.456;2024-01-06T13:49:28;60.22;;;25.33;;
25758;SDS011;13604;52.496;13.456;2024-01-06T13:51:54;51.08;;;23.42;;
25758;SDS011;13604;52.496;13.456;2024-01-06T13:54:19;52.42;;;23.40;;
25758;SDS011;13604;52.496;13.456;2024-01-06T13:56:45;59.47;;;25.08;;
25758;SDS011;13604;52.496;13.456;2024-01-06T13:59:11;59.08;;;26.88;;
25758;SDS011;13604;52.496;13.456;2024-01-06T14:01:36;54.03;;;25.23;;
25758;SDS011;13604;52.496;13.456;2024-01-06T14:04:02;56.55;;;26.23;;